createdAt,value
2018-12-18T00:00:29.522Z,6.4
2018-12-18T00:01:30.179Z,6.4
2018-12-18T00:02:30.834Z,6.4
2018-12-18T00:03:31.488Z,6.5
2018-12-18T00:04:32.142Z,6.5
2018-12-18T00:05:32.798Z,6.5
2018-12-18T00:06:33.456Z,6.5
2018-12-18T00:07:34.112Z,6.5
2018-12-18T00:08:34.772Z,6.5
2018-12-18T00:09:35.434Z,6.5
2018-12-18T00:10:36.076Z,6.5
2018-12-18T00:11:36.731Z,6.5
2018-12-18T00:12:37.388Z,6.5
2018-12-18T00:13:38.043Z,6.5
2018-12-18T00:14:39.319Z,6.5
2018-12-18T00:15:39.998Z,6.5
2018-12-18T00:16:40.651Z,6.5
2018-12-18T00:17:41.307Z,6.5
2018-12-18T00:18:42.010Z,6.4
2018-12-18T00:19:42.664Z,6.4
2018-12-18T00:20:43.318Z,6.5
2018-12-18T00:21:43.974Z,6.5
2018-12-18T00:22:44.629Z,6.5
2018-12-18T00:23:45.282Z,6.4
2018-12-18T00:24:45.939Z,6.4
2018-12-18T00:25:46.595Z,6.5
2018-12-18T00:26:47.251Z,6.4
2018-12-18T00:27:47.906Z,6.5
2018-12-18T00:28:48.561Z,6.5
2018-12-18T00:29:49.215Z,6.5
2018-12-18T00:30:49.873Z,6.6
2018-12-18T00:31:50.572Z,6.5
2018-12-18T00:32:51.226Z,6.6
2018-12-18T00:33:51.880Z,6.5
2018-12-18T00:34:52.536Z,6.6
2018-12-18T00:35:53.194Z,6.6
2018-12-18T00:36:53.851Z,6.6
2018-12-18T00:37:54.506Z,6.6
2018-12-18T00:38:55.160Z,6.6
2018-12-18T00:39:55.816Z,6.6
2018-12-18T00:40:56.469Z,6.6
2018-12-18T00:41:57.125Z,6.6
2018-12-18T00:42:57.780Z,6.6
2018-12-18T00:43:58.436Z,6.6
2018-12-18T00:44:59.093Z,6.6
2018-12-18T00:45:59.748Z,6.6
2018-12-18T00:47:00.404Z,6.6
2018-12-18T00:48:01.060Z,6.6
2018-12-18T00:49:01.715Z,6.7
2018-12-18T00:50:02.372Z,6.6
2018-12-18T00:51:03.032Z,6.6
2018-12-18T00:52:03.730Z,6.6
2018-12-18T00:53:04.382Z,6.5
2018-12-18T00:54:05.037Z,6.6
2018-12-18T00:55:05.693Z,6.6
2018-12-18T00:56:06.349Z,6.6
2018-12-18T00:57:07.003Z,6.6
2018-12-18T00:58:07.660Z,6.6
2018-12-18T00:59:08.357Z,6.6
2018-12-18T01:00:09.013Z,6.6
2018-12-18T01:01:09.669Z,6.6
2018-12-18T01:02:10.323Z,6.6
2018-12-18T01:03:10.977Z,6.7
2018-12-18T01:04:11.635Z,6.7
2018-12-18T01:05:12.292Z,6.6
2018-12-18T01:06:12.993Z,6.7
2018-12-18T01:07:13.647Z,6.6
2018-12-18T01:08:14.304Z,6.6
2018-12-18T01:09:14.958Z,6.7
2018-12-18T01:10:15.613Z,6.6
2018-12-18T01:11:16.318Z,6.7
2018-12-18T01:12:16.976Z,6.6
2018-12-18T01:13:17.633Z,6.7
2018-12-18T01:14:18.286Z,6.7
2018-12-18T01:15:18.942Z,6.7
2018-12-18T01:16:19.614Z,6.7
2018-12-18T01:17:20.300Z,6.7
2018-12-18T01:18:20.956Z,6.7
2018-12-18T01:19:21.610Z,6.7
2018-12-18T01:20:22.264Z,6.7
2018-12-18T01:21:22.920Z,6.7
2018-12-18T01:22:23.625Z,6.7
2018-12-18T01:23:24.281Z,6.6
2018-12-18T01:24:24.937Z,6.6
2018-12-18T01:25:25.593Z,6.6
2018-12-18T01:26:26.246Z,6.5
2018-12-18T01:27:26.902Z,6.6
2018-12-18T01:28:27.558Z,6.5
2018-12-18T01:29:28.213Z,6.4
2018-12-18T01:30:28.867Z,6.3
2018-12-18T01:31:29.525Z,6.2
2018-12-18T01:32:30.228Z,6.2
2018-12-18T01:33:30.882Z,6.2
2018-12-18T01:34:31.539Z,6.2
2018-12-18T01:35:32.195Z,6.1
2018-12-18T01:36:32.850Z,6.1
2018-12-18T01:37:33.506Z,5.9
2018-12-18T01:38:34.164Z,6.0
2018-12-18T01:39:34.818Z,6.0
2018-12-18T01:40:35.477Z,6.0
2018-12-18T01:41:36.127Z,6.0
2018-12-18T01:42:36.785Z,6.0
2018-12-18T01:43:37.436Z,6.0
2018-12-18T01:44:38.095Z,6.0
2018-12-18T01:45:38.755Z,5.9
2018-12-18T01:46:39.451Z,6.0
2018-12-18T01:47:40.106Z,6.1
2018-12-18T01:48:40.760Z,6.0
2018-12-18T01:49:41.416Z,5.9
2018-12-18T01:50:42.072Z,6.0
2018-12-18T01:51:42.726Z,6.0
2018-12-18T01:52:43.446Z,6.0
2018-12-18T01:53:44.047Z,6.0
2018-12-18T01:54:44.704Z,6.0
2018-12-18T01:55:45.355Z,5.9
2018-12-18T01:56:46.010Z,5.9
2018-12-18T01:57:46.664Z,6.0
2018-12-18T01:58:47.318Z,5.9
2018-12-18T01:59:47.974Z,6.0
2018-12-18T02:00:48.631Z,6.0
2018-12-18T02:01:49.287Z,5.9
2018-12-18T02:02:49.941Z,6.0
2018-12-18T02:03:50.684Z,6.0
2018-12-18T02:04:51.287Z,6.0
2018-12-18T02:05:51.941Z,5.9
2018-12-18T02:06:52.596Z,5.9
2018-12-18T02:07:53.250Z,5.9
2018-12-18T02:08:53.908Z,5.8
2018-12-18T02:09:54.564Z,5.8
2018-12-18T02:10:55.218Z,5.9
2018-12-18T02:11:55.873Z,5.9
2018-12-18T02:12:56.525Z,6.0
2018-12-18T02:13:57.180Z,5.9
2018-12-18T02:14:57.835Z,5.9
2018-12-18T02:15:58.488Z,5.9
2018-12-18T02:16:59.143Z,5.9
2018-12-18T02:17:59.799Z,6.0
2018-12-18T02:19:00.454Z,6.0
2018-12-18T02:20:01.109Z,5.9
2018-12-18T02:21:01.762Z,5.9
2018-12-18T02:22:02.419Z,6.0
2018-12-18T02:23:03.076Z,5.9
2018-12-18T02:24:03.731Z,6.0
2018-12-18T02:25:04.383Z,5.9
2018-12-18T02:26:05.040Z,5.9
2018-12-18T02:27:05.697Z,5.9
2018-12-18T02:28:06.352Z,5.9
2018-12-18T02:29:07.009Z,5.8
2018-12-18T02:30:07.662Z,5.7
2018-12-18T02:31:08.316Z,5.7
2018-12-18T02:32:08.970Z,5.7
2018-12-18T02:33:09.626Z,5.6
2018-12-18T02:34:13.798Z,5.6
2018-12-18T02:35:11.927Z,5.6
2018-12-18T02:36:12.624Z,5.5
2018-12-18T02:37:13.281Z,5.5
2018-12-18T02:38:13.935Z,5.5
2018-12-18T02:39:14.593Z,5.5
2018-12-18T02:40:15.258Z,5.5
2018-12-18T02:41:15.906Z,5.5
2018-12-18T02:42:16.561Z,5.5
2018-12-18T02:43:17.217Z,5.5
2018-12-18T02:44:17.872Z,5.5
2018-12-18T02:45:18.527Z,5.5
2018-12-18T02:46:19.183Z,5.5
2018-12-18T02:47:19.838Z,5.5
2018-12-18T02:48:20.493Z,5.5
2018-12-18T02:49:21.160Z,5.5
2018-12-18T02:50:21.816Z,5.4
2018-12-18T02:51:22.473Z,5.6
2018-12-18T02:52:23.129Z,5.5
2018-12-18T02:53:23.787Z,5.5
2018-12-18T02:54:24.442Z,5.4
2018-12-18T02:55:25.099Z,5.5
2018-12-18T02:56:25.754Z,5.5
2018-12-18T02:57:26.408Z,5.4
2018-12-18T02:58:27.062Z,5.4
2018-12-18T02:59:27.719Z,5.3
2018-12-18T03:00:28.375Z,5.4
2018-12-18T03:01:29.078Z,5.4
2018-12-18T03:02:29.731Z,5.4
2018-12-18T03:03:30.386Z,5.3
2018-12-18T03:04:31.043Z,5.3
2018-12-18T03:05:31.698Z,5.4
2018-12-18T03:06:32.357Z,5.3
2018-12-18T03:07:33.071Z,5.4
2018-12-18T03:08:33.714Z,5.3
2018-12-18T03:09:34.368Z,5.3
2018-12-18T03:10:35.023Z,5.3
2018-12-18T03:11:35.697Z,5.3
2018-12-18T03:12:36.350Z,5.4
2018-12-18T03:13:37.004Z,5.3
2018-12-18T03:14:37.659Z,5.3
2018-12-18T03:15:38.313Z,5.4
2018-12-18T03:16:38.972Z,5.4
2018-12-18T03:17:39.625Z,5.5
2018-12-18T03:18:40.334Z,5.5
2018-12-18T03:19:40.936Z,5.5
2018-12-18T03:20:41.592Z,5.5
2018-12-18T03:21:42.251Z,5.5
2018-12-18T03:22:42.908Z,5.5
2018-12-18T03:23:43.565Z,5.5
2018-12-18T03:24:44.225Z,5.6
2018-12-18T03:25:44.877Z,5.6
2018-12-18T03:26:45.532Z,5.6
2018-12-18T03:27:46.186Z,5.6
2018-12-18T03:28:46.846Z,5.6
2018-12-18T03:29:47.499Z,5.6
2018-12-18T03:30:48.155Z,5.6
2018-12-18T03:31:48.810Z,5.5
2018-12-18T03:32:49.519Z,5.6
2018-12-18T03:33:50.165Z,5.6
2018-12-18T03:34:50.822Z,5.6
2018-12-18T03:35:51.478Z,5.6
2018-12-18T03:36:52.133Z,5.6
2018-12-18T03:37:52.788Z,5.6
2018-12-18T03:38:53.444Z,5.7
2018-12-18T03:39:54.099Z,5.5
2018-12-18T03:40:54.756Z,5.6
2018-12-18T03:41:55.413Z,5.6
2018-12-18T03:42:56.073Z,5.6
2018-12-18T03:43:56.722Z,5.7
2018-12-18T03:44:57.379Z,5.7
2018-12-18T03:45:58.034Z,5.6
2018-12-18T03:46:58.692Z,5.7
2018-12-18T03:47:59.349Z,5.6
2018-12-18T03:49:00.005Z,5.8
2018-12-18T03:50:00.660Z,5.7
2018-12-18T03:51:01.315Z,5.7
2018-12-18T03:52:01.972Z,5.7
2018-12-18T03:53:02.632Z,5.7
2018-12-18T03:54:03.332Z,5.7
2018-12-18T03:55:04.005Z,5.7
2018-12-18T03:56:04.644Z,5.7
2018-12-18T03:57:05.301Z,5.8
2018-12-18T03:58:05.952Z,5.8
2018-12-18T03:59:06.612Z,5.8
2018-12-18T04:00:07.266Z,5.8
2018-12-18T04:01:07.921Z,5.8
2018-12-18T04:02:08.577Z,5.8
2018-12-18T04:03:09.234Z,5.7
2018-12-18T04:04:09.884Z,5.8
2018-12-18T04:05:10.545Z,5.8
2018-12-18T04:06:11.195Z,5.8
2018-12-18T04:07:11.849Z,5.8
2018-12-18T04:08:12.504Z,5.8
2018-12-18T04:09:13.161Z,5.8
2018-12-18T04:10:13.820Z,5.8
2018-12-18T04:11:14.481Z,5.8
2018-12-18T04:12:15.176Z,5.8
2018-12-18T04:13:15.827Z,5.8
2018-12-18T04:14:16.481Z,5.8
2018-12-18T04:15:17.139Z,5.9
2018-12-18T04:16:17.838Z,5.9
2018-12-18T04:17:18.493Z,5.8
2018-12-18T04:18:19.151Z,5.8
2018-12-18T04:19:19.881Z,5.9
2018-12-18T04:20:20.500Z,6.0
2018-12-18T04:21:21.154Z,5.8
2018-12-18T04:22:21.808Z,6.0
2018-12-18T04:23:22.463Z,6.0
2018-12-18T04:24:23.117Z,6.0
2018-12-18T04:25:23.774Z,5.9
2018-12-18T04:26:24.427Z,5.9
2018-12-18T04:27:25.083Z,5.9
2018-12-18T04:28:25.740Z,6.0
2018-12-18T04:29:26.396Z,5.9
2018-12-18T04:30:27.051Z,6.0
2018-12-18T04:31:27.704Z,6.1
2018-12-18T04:32:28.358Z,6.1
2018-12-18T04:33:29.013Z,6.0
2018-12-18T04:34:29.668Z,6.1
2018-12-18T04:35:30.325Z,6.0
2018-12-18T04:36:30.978Z,6.0
2018-12-18T04:37:31.632Z,6.0
2018-12-18T04:38:32.288Z,6.1
2018-12-18T04:39:32.944Z,6.1
2018-12-18T04:40:33.694Z,6.1
2018-12-18T04:41:34.307Z,6.1
2018-12-18T04:42:34.958Z,6.1
2018-12-18T04:43:35.613Z,6.1
2018-12-18T04:44:36.269Z,6.1
2018-12-18T04:45:36.921Z,6.0
2018-12-18T04:46:37.580Z,6.1
2018-12-18T04:47:38.233Z,6.0
2018-12-18T04:48:38.889Z,6.1
2018-12-18T04:49:39.550Z,6.1
2018-12-18T04:50:40.242Z,6.1
2018-12-18T04:51:40.897Z,6.2
2018-12-18T04:52:41.552Z,6.1
2018-12-18T04:53:42.206Z,6.2
2018-12-18T04:54:42.862Z,6.2
2018-12-18T04:55:43.517Z,6.1
2018-12-18T04:56:44.172Z,6.2
2018-12-18T04:57:44.832Z,6.2
2018-12-18T04:58:45.529Z,6.2
2018-12-18T04:59:46.183Z,6.2
2018-12-18T05:00:46.837Z,6.2
2018-12-18T05:01:47.500Z,6.2
2018-12-18T05:02:48.147Z,6.2
2018-12-18T05:03:48.801Z,6.2
2018-12-18T05:04:50.403Z,6.1
2018-12-18T05:05:51.105Z,6.2
2018-12-18T05:06:51.847Z,6.2
2018-12-18T05:07:52.452Z,6.2
2018-12-18T05:08:53.155Z,6.2
2018-12-18T05:09:53.806Z,6.2
2018-12-18T05:10:54.460Z,6.2
2018-12-18T05:11:55.115Z,6.3
2018-12-18T05:12:55.770Z,6.3
2018-12-18T05:13:56.424Z,6.3
2018-12-18T05:14:57.080Z,6.3
2018-12-18T05:15:57.737Z,6.3
2018-12-18T05:16:58.397Z,6.3
2018-12-18T05:17:59.048Z,6.3
2018-12-18T05:18:59.702Z,6.2
2018-12-18T05:20:00.357Z,6.3
2018-12-18T05:21:01.011Z,6.3
2018-12-18T05:22:01.667Z,6.3
2018-12-18T05:23:02.324Z,6.3
2018-12-18T05:24:02.978Z,6.3
2018-12-18T05:25:03.634Z,6.3
2018-12-18T05:26:04.294Z,6.3
2018-12-18T05:27:04.949Z,6.3
2018-12-18T05:28:05.606Z,6.3
2018-12-18T05:29:06.258Z,6.3
2018-12-18T05:30:06.913Z,6.3
2018-12-18T05:31:07.570Z,6.3
2018-12-18T05:32:08.269Z,6.2
2018-12-18T05:33:08.928Z,6.1
2018-12-18T05:34:09.580Z,6.2
2018-12-18T05:35:10.235Z,6.2
2018-12-18T05:36:10.898Z,6.2
2018-12-18T05:37:11.547Z,6.2
2018-12-18T05:38:12.201Z,6.2
2018-12-18T05:39:12.858Z,6.2
2018-12-18T05:40:13.511Z,6.2
2018-12-18T05:41:14.214Z,6.1
2018-12-18T05:42:14.816Z,6.2
2018-12-18T05:43:15.471Z,6.2
2018-12-18T05:44:16.129Z,6.1
2018-12-18T05:45:16.784Z,6.1
2018-12-18T05:46:17.439Z,6.2
2018-12-18T05:47:18.092Z,6.2
2018-12-18T05:48:18.747Z,6.2
2018-12-18T05:49:19.403Z,6.3
2018-12-18T05:50:20.060Z,6.3
2018-12-18T05:51:20.714Z,6.2
2018-12-18T05:52:21.370Z,6.2
2018-12-18T05:53:22.070Z,6.3
2018-12-18T05:54:22.729Z,6.3
2018-12-18T05:55:23.387Z,6.3
2018-12-18T05:56:24.038Z,6.3
2018-12-18T05:57:24.695Z,6.2
2018-12-18T05:58:25.391Z,6.3
2018-12-18T05:59:26.047Z,6.2
2018-12-18T06:00:26.702Z,6.3
2018-12-18T06:01:27.358Z,6.3
2018-12-18T06:02:28.013Z,6.4
2018-12-18T06:03:28.669Z,6.3
2018-12-18T06:04:29.326Z,6.4
2018-12-18T06:05:29.981Z,6.4
2018-12-18T06:06:30.637Z,6.4
2018-12-18T06:07:31.291Z,6.4
2018-12-18T06:08:31.946Z,6.5
2018-12-18T06:09:32.601Z,6.4
2018-12-18T06:10:33.258Z,6.4
2018-12-18T06:11:33.955Z,6.4
2018-12-18T06:12:34.611Z,6.4
2018-12-18T06:13:35.267Z,6.4
2018-12-18T06:14:35.925Z,6.4
2018-12-18T06:15:36.579Z,6.5
2018-12-18T06:16:37.233Z,6.5
2018-12-18T06:17:37.889Z,6.6
2018-12-18T06:18:38.547Z,6.5
2018-12-18T06:19:39.202Z,6.5
2018-12-18T06:20:39.855Z,6.5
2018-12-18T06:21:40.556Z,6.5
2018-12-18T06:22:41.214Z,6.4
2018-12-18T06:23:41.867Z,6.5
2018-12-18T06:24:42.525Z,6.5
2018-12-18T06:25:43.192Z,6.5
2018-12-18T06:26:43.879Z,6.5
2018-12-18T06:27:44.533Z,6.6
2018-12-18T06:28:45.188Z,6.5
2018-12-18T06:29:45.843Z,6.5
2018-12-18T06:30:46.498Z,6.5
2018-12-18T06:31:47.153Z,6.5
2018-12-18T06:32:47.810Z,6.5
2018-12-18T06:33:48.467Z,6.5
2018-12-18T06:34:49.122Z,6.5
2018-12-18T06:35:49.779Z,6.5
2018-12-18T06:36:50.431Z,6.4
2018-12-18T06:37:51.087Z,6.5
2018-12-18T06:38:51.743Z,6.5
2018-12-18T06:39:52.398Z,6.4
2018-12-18T06:40:53.052Z,6.5
2018-12-18T06:41:53.710Z,6.4
2018-12-18T06:42:54.366Z,6.5
2018-12-18T06:43:55.021Z,6.4
2018-12-18T06:44:55.676Z,6.5
2018-12-18T06:45:56.331Z,6.5
2018-12-18T06:46:56.988Z,6.4
2018-12-18T06:47:57.644Z,6.5
2018-12-18T06:48:58.298Z,6.5
2018-12-18T06:49:58.954Z,6.5
2018-12-18T06:50:59.612Z,6.5
2018-12-18T06:52:00.268Z,6.4
2018-12-18T06:53:00.970Z,6.5
2018-12-18T06:54:01.629Z,6.5
2018-12-18T06:55:02.283Z,6.4
2018-12-18T06:56:02.940Z,6.4
2018-12-18T06:57:03.596Z,6.4
2018-12-18T06:58:04.253Z,6.4
2018-12-18T06:59:04.909Z,6.3
2018-12-18T07:00:05.565Z,6.4
2018-12-18T07:01:06.228Z,6.3
2018-12-18T07:02:06.880Z,6.4
2018-12-18T07:03:07.536Z,6.3
2018-12-18T07:04:08.194Z,6.3
2018-12-18T07:05:08.897Z,6.3
2018-12-18T07:06:09.569Z,6.3
2018-12-18T07:07:10.227Z,6.2
2018-12-18T07:08:10.926Z,6.0
2018-12-18T07:09:11.629Z,6.1
2018-12-18T07:10:12.285Z,6.0
2018-12-18T07:11:12.945Z,5.9
2018-12-18T07:12:13.603Z,5.9
2018-12-18T07:13:14.266Z,6.0
2018-12-18T07:14:14.925Z,5.9
2018-12-18T07:15:15.581Z,5.9
2018-12-18T07:16:16.240Z,5.8
2018-12-18T07:17:16.898Z,5.8
2018-12-18T07:18:17.556Z,5.7
2018-12-18T07:19:18.213Z,5.7
2018-12-18T07:20:18.870Z,5.7
2018-12-18T07:21:19.526Z,5.7
2018-12-18T07:22:20.184Z,5.6
2018-12-18T07:23:20.883Z,5.7
2018-12-18T07:24:21.539Z,5.6
2018-12-18T07:25:22.195Z,5.5
2018-12-18T07:26:22.871Z,5.6
2018-12-18T07:27:23.556Z,5.5
2018-12-18T07:28:24.215Z,5.5
2018-12-18T07:29:24.873Z,5.5
2018-12-18T07:30:25.530Z,5.5
2018-12-18T07:31:26.190Z,5.5
2018-12-18T07:32:26.846Z,5.5
2018-12-18T07:33:27.516Z,5.5
2018-12-18T07:34:33.349Z,5.4
2018-12-18T07:35:29.857Z,5.4
2018-12-18T07:36:30.515Z,5.3
2018-12-18T07:37:31.173Z,5.4
2018-12-18T07:38:31.831Z,5.4
2018-12-18T07:39:32.490Z,5.4
2018-12-18T07:40:33.144Z,5.3
2018-12-18T07:41:33.801Z,5.3
2018-12-18T07:42:34.460Z,5.4
2018-12-18T07:43:35.118Z,5.3
2018-12-18T07:44:35.776Z,5.4
2018-12-18T07:45:36.435Z,5.2
2018-12-18T07:46:37.094Z,5.3
2018-12-18T07:47:37.754Z,5.2
2018-12-18T07:48:38.412Z,5.3
2018-12-18T07:49:39.071Z,5.3
2018-12-18T07:50:39.731Z,5.3
2018-12-18T07:51:40.390Z,5.3
2018-12-18T07:52:41.049Z,5.2
2018-12-18T07:53:41.707Z,5.2
2018-12-18T07:54:42.366Z,5.3
2018-12-18T07:55:43.026Z,5.2
2018-12-18T07:56:43.683Z,5.2
2018-12-18T07:57:44.343Z,5.2
2018-12-18T07:58:45.003Z,5.2
2018-12-18T07:59:45.662Z,5.3
2018-12-18T08:00:46.322Z,5.2
2018-12-18T08:01:46.981Z,5.1
2018-12-18T08:02:47.655Z,5.2
2018-12-18T08:03:48.346Z,5.2
2018-12-18T08:04:49.007Z,5.1
2018-12-18T08:05:49.665Z,5.1
2018-12-18T08:06:50.327Z,5.1
2018-12-18T08:07:51.029Z,5.1
2018-12-18T08:08:51.688Z,5.1
2018-12-18T08:09:52.348Z,5.1
2018-12-18T08:10:53.009Z,5.1
2018-12-18T08:11:53.666Z,5.1
2018-12-18T08:12:54.325Z,5.1
2018-12-18T08:13:54.986Z,5.1
2018-12-18T08:14:55.646Z,5.1
2018-12-18T08:15:56.304Z,5.1
2018-12-18T08:16:56.964Z,5.0
2018-12-18T08:17:57.623Z,5.1
2018-12-18T08:18:58.282Z,5.1
2018-12-18T08:19:58.940Z,5.1
2018-12-18T08:20:59.601Z,5.1
2018-12-18T08:22:00.259Z,5.1
2018-12-18T08:23:00.919Z,5.2
2018-12-18T08:24:01.579Z,5.3
2018-12-18T08:25:02.285Z,5.2
2018-12-18T08:26:02.944Z,5.2
2018-12-18T08:27:03.603Z,5.3
2018-12-18T08:28:04.259Z,5.3
2018-12-18T08:29:04.918Z,5.3
2018-12-18T08:30:05.578Z,5.3
2018-12-18T08:31:06.237Z,5.4
2018-12-18T08:32:06.895Z,5.3
2018-12-18T08:33:07.556Z,5.4
2018-12-18T08:34:08.215Z,5.4
2018-12-18T08:35:08.874Z,5.4
2018-12-18T08:36:09.534Z,5.3
2018-12-18T08:37:10.192Z,5.4
2018-12-18T08:38:10.906Z,5.5
2018-12-18T08:39:11.607Z,5.5
2018-12-18T08:40:12.265Z,5.5
2018-12-18T08:41:12.946Z,5.5
2018-12-18T08:42:13.581Z,5.5
2018-12-18T08:43:14.243Z,5.5
2018-12-18T08:44:14.902Z,5.6
2018-12-18T08:45:15.558Z,5.7
2018-12-18T08:46:16.219Z,5.7
2018-12-18T08:47:16.875Z,5.7
2018-12-18T08:48:17.535Z,5.7
2018-12-18T08:49:18.195Z,5.7
2018-12-18T08:50:18.854Z,5.8
2018-12-18T08:51:19.513Z,5.7
2018-12-18T08:52:20.175Z,5.7
2018-12-18T08:53:20.832Z,5.8
2018-12-18T08:54:21.492Z,5.8
2018-12-18T08:55:22.152Z,5.8
2018-12-18T08:56:22.864Z,5.8
2018-12-18T08:57:23.469Z,5.8
2018-12-18T08:58:24.130Z,5.7
2018-12-18T08:59:24.794Z,5.8
2018-12-18T09:00:25.456Z,5.8
2018-12-18T09:01:26.110Z,5.9
2018-12-18T09:02:26.771Z,5.8
2018-12-18T09:03:27.430Z,5.9
2018-12-18T09:04:28.091Z,6.0
2018-12-18T09:05:28.749Z,5.8
2018-12-18T09:06:29.409Z,5.9
2018-12-18T09:07:30.068Z,5.9
2018-12-18T09:08:30.731Z,5.8
2018-12-18T09:09:31.387Z,5.9
2018-12-18T09:10:32.047Z,5.8
2018-12-18T09:11:32.707Z,5.9
2018-12-18T09:12:33.368Z,5.9
2018-12-18T09:13:34.025Z,5.8
2018-12-18T09:14:34.685Z,5.8
2018-12-18T09:15:35.343Z,5.7
2018-12-18T09:16:36.004Z,5.7
2018-12-18T09:17:36.709Z,5.8
2018-12-18T09:18:37.368Z,5.8
2018-12-18T09:19:38.028Z,5.8
2018-12-18T09:20:38.688Z,5.8
2018-12-18T09:21:39.347Z,5.9
2018-12-18T09:22:40.006Z,5.8
2018-12-18T09:23:40.667Z,5.8
2018-12-18T09:24:41.325Z,5.9
2018-12-18T09:25:41.985Z,5.9
2018-12-18T09:26:42.644Z,5.9
2018-12-18T09:27:43.348Z,5.9
2018-12-18T09:28:44.007Z,5.9
2018-12-18T09:29:44.667Z,6.0
2018-12-18T09:30:45.326Z,6.1
2018-12-18T09:31:45.992Z,6.1
2018-12-18T09:32:46.690Z,6.1
2018-12-18T09:33:47.352Z,6.1
2018-12-18T09:34:48.054Z,6.2
2018-12-18T09:35:49.766Z,6.2
2018-12-18T09:36:50.364Z,6.2
2018-12-18T09:37:51.023Z,6.2
2018-12-18T09:38:51.682Z,6.3
2018-12-18T09:39:52.346Z,6.4
2018-12-18T09:40:53.001Z,6.4
2018-12-18T09:41:53.660Z,6.4
2018-12-18T09:42:54.321Z,6.3
2018-12-18T09:43:54.976Z,6.5
2018-12-18T09:44:55.685Z,6.6
2018-12-18T09:45:56.345Z,6.6
2018-12-18T09:46:57.005Z,6.7
2018-12-18T09:47:57.724Z,6.7
2018-12-18T09:48:58.333Z,6.7
2018-12-18T09:49:58.990Z,6.7
2018-12-18T09:50:59.650Z,6.8
2018-12-18T09:52:00.308Z,6.8
2018-12-18T09:53:00.969Z,6.9
2018-12-18T09:54:01.630Z,7.0
2018-12-18T09:55:02.292Z,6.9
2018-12-18T09:56:02.952Z,7.0
2018-12-18T09:57:03.615Z,7.0
2018-12-18T09:58:04.271Z,7.0
2018-12-18T09:59:04.932Z,6.9
2018-12-18T10:00:05.593Z,7.1
2018-12-18T10:01:06.254Z,7.1
2018-12-18T10:02:06.914Z,7.2
2018-12-18T10:03:07.573Z,7.1
2018-12-18T10:04:08.233Z,7.0
2018-12-18T10:05:08.893Z,7.1
2018-12-18T10:06:09.551Z,7.1
2018-12-18T10:07:10.215Z,7.1
2018-12-18T10:08:10.873Z,7.1
2018-12-18T10:09:11.532Z,7.1
2018-12-18T10:10:12.234Z,7.1
2018-12-18T10:11:12.889Z,7.2
2018-12-18T10:12:13.549Z,7.2
2018-12-18T10:13:14.207Z,7.0
2018-12-18T10:14:14.867Z,7.2
2018-12-18T10:15:15.525Z,7.1
2018-12-18T10:16:16.185Z,7.1
2018-12-18T10:17:16.846Z,7.2
2018-12-18T10:18:17.505Z,7.1
2018-12-18T10:19:18.165Z,7.2
2018-12-18T10:20:18.825Z,7.2
2018-12-18T10:21:19.487Z,7.2
2018-12-18T10:22:20.147Z,7.2
2018-12-18T10:23:20.809Z,7.1
2018-12-18T10:24:21.467Z,7.2
2018-12-18T10:25:22.148Z,7.2
2018-12-18T10:26:22.789Z,7.2
2018-12-18T10:27:23.449Z,7.1
2018-12-18T10:28:24.109Z,7.2
2018-12-18T10:29:24.770Z,7.2
2018-12-18T10:30:25.429Z,7.2
2018-12-18T10:31:26.095Z,7.2
2018-12-18T10:32:26.800Z,7.2
2018-12-18T10:33:27.499Z,7.2
2018-12-18T10:34:28.160Z,7.3
2018-12-18T10:35:28.820Z,7.2
2018-12-18T10:36:29.481Z,7.2
2018-12-18T10:37:30.142Z,7.2
2018-12-18T10:38:30.802Z,7.3
2018-12-18T10:39:31.465Z,7.3
2018-12-18T10:40:32.123Z,7.3
2018-12-18T10:41:32.786Z,7.3
2018-12-18T10:42:33.447Z,7.3
2018-12-18T10:43:34.105Z,7.4
2018-12-18T10:44:34.765Z,7.4
2018-12-18T10:45:35.429Z,7.4
2018-12-18T10:46:36.087Z,7.5
2018-12-18T10:47:36.748Z,7.4
2018-12-18T10:48:37.408Z,7.4
2018-12-18T10:49:38.072Z,7.5
2018-12-18T10:50:38.773Z,7.5
2018-12-18T10:51:39.432Z,7.4
2018-12-18T10:52:40.092Z,7.5
2018-12-18T10:53:40.803Z,7.5
2018-12-18T10:54:41.464Z,7.5
2018-12-18T10:55:42.123Z,7.5
2018-12-18T10:56:42.782Z,7.6
2018-12-18T10:57:43.441Z,7.5
2018-12-18T10:58:44.099Z,7.6
2018-12-18T10:59:44.760Z,7.6
2018-12-18T11:00:45.425Z,7.7
2018-12-18T11:01:46.125Z,7.6
2018-12-18T11:02:46.786Z,7.7
2018-12-18T11:03:47.445Z,7.8
2018-12-18T11:04:48.105Z,7.8
2018-12-18T11:05:48.768Z,7.8
2018-12-18T11:06:49.425Z,7.7
2018-12-18T11:07:50.087Z,7.8
2018-12-18T11:08:50.792Z,7.9
2018-12-18T11:09:51.453Z,7.8
2018-12-18T11:10:52.118Z,7.8
2018-12-18T11:11:52.818Z,7.8
2018-12-18T11:12:53.478Z,7.8
2018-12-18T11:13:54.139Z,7.9
2018-12-18T11:14:54.799Z,7.9
2018-12-18T11:15:55.461Z,7.9
2018-12-18T11:16:56.120Z,8.0
2018-12-18T11:17:56.781Z,8.0
2018-12-18T11:18:57.443Z,8.0
2018-12-18T11:19:58.104Z,8.1
2018-12-18T11:20:58.765Z,8.1
2018-12-18T11:21:59.424Z,8.1
2018-12-18T11:23:00.085Z,8.1
2018-12-18T11:24:00.748Z,8.0
2018-12-18T11:25:01.414Z,8.2
2018-12-18T11:26:02.115Z,8.1
2018-12-18T11:27:02.775Z,8.2
2018-12-18T11:28:03.436Z,8.2
2018-12-18T11:29:04.096Z,8.3
2018-12-18T11:30:04.759Z,8.2
2018-12-18T11:31:05.420Z,8.3
2018-12-18T11:32:06.079Z,8.2
2018-12-18T11:33:06.741Z,8.2
2018-12-18T11:34:07.401Z,8.2
2018-12-18T11:35:08.062Z,8.3
2018-12-18T11:36:08.721Z,8.2
2018-12-18T11:37:09.391Z,8.2
2018-12-18T11:38:10.089Z,8.2
2018-12-18T11:39:10.749Z,8.2
2018-12-18T11:40:11.411Z,8.2
2018-12-18T11:41:12.073Z,8.3
2018-12-18T11:42:12.733Z,8.3
2018-12-18T11:43:13.395Z,8.3
2018-12-18T11:44:14.055Z,8.3
2018-12-18T11:45:14.716Z,8.3
2018-12-18T11:46:15.376Z,8.4
2018-12-18T11:47:16.037Z,8.4
2018-12-18T11:48:16.700Z,8.4
2018-12-18T11:49:17.360Z,8.4
2018-12-18T11:50:18.024Z,8.4
2018-12-18T11:51:18.682Z,8.4
2018-12-18T11:52:20.653Z,8.5
2018-12-18T11:53:20.996Z,8.5
2018-12-18T11:54:21.657Z,8.4
2018-12-18T11:55:22.316Z,8.5
2018-12-18T11:56:23.003Z,8.5
2018-12-18T11:57:23.682Z,8.5
2018-12-18T11:58:24.345Z,8.6
2018-12-18T11:59:25.012Z,8.5
2018-12-18T12:00:25.707Z,8.6
2018-12-18T12:01:26.367Z,8.6
2018-12-18T12:02:27.026Z,8.6
2018-12-18T12:03:27.686Z,8.6
2018-12-18T12:04:28.347Z,8.7
2018-12-18T12:05:29.008Z,8.6
2018-12-18T12:06:29.670Z,8.6
2018-12-18T12:07:30.330Z,8.6
2018-12-18T12:08:30.992Z,8.6
2018-12-18T12:09:31.697Z,8.6
2018-12-18T12:10:32.360Z,8.6
2018-12-18T12:11:33.064Z,8.6
2018-12-18T12:12:33.725Z,8.6
2018-12-18T12:13:34.388Z,8.6
2018-12-18T12:14:35.048Z,8.6
2018-12-18T12:15:35.708Z,8.7
2018-12-18T12:16:36.370Z,8.7
2018-12-18T12:17:37.033Z,8.6
2018-12-18T12:18:37.694Z,8.6
2018-12-18T12:19:38.356Z,8.6
2018-12-18T12:20:39.016Z,8.7
2018-12-18T12:21:39.720Z,8.6
2018-12-18T12:22:40.382Z,8.7
2018-12-18T12:23:41.043Z,8.6
2018-12-18T12:24:41.707Z,8.7
2018-12-18T12:25:42.410Z,8.7
2018-12-18T12:26:43.072Z,8.7
2018-12-18T12:27:43.731Z,8.7
2018-12-18T12:28:44.394Z,8.7
2018-12-18T12:29:45.053Z,8.7
2018-12-18T12:30:45.715Z,8.7
2018-12-18T12:31:46.376Z,8.8
2018-12-18T12:32:47.040Z,8.7
2018-12-18T12:33:47.751Z,8.8
2018-12-18T12:34:48.410Z,8.9
2018-12-18T12:35:49.119Z,8.9
2018-12-18T12:36:49.824Z,8.8
2018-12-18T12:37:50.485Z,8.9
2018-12-18T12:38:51.149Z,8.8
2018-12-18T12:39:51.809Z,8.9
2018-12-18T12:40:52.523Z,8.7
2018-12-18T12:41:53.175Z,8.8
2018-12-18T12:42:53.835Z,8.7
2018-12-18T12:43:54.498Z,8.7
2018-12-18T12:44:55.158Z,8.8
2018-12-18T12:45:55.822Z,8.8
2018-12-18T12:46:56.482Z,8.8
2018-12-18T12:47:57.165Z,8.8
2018-12-18T12:48:57.848Z,8.8
2018-12-18T12:49:58.509Z,8.8
2018-12-18T12:50:59.172Z,8.9
2018-12-18T12:51:59.834Z,9.0
2018-12-18T12:53:00.496Z,8.9
2018-12-18T12:54:01.158Z,9.0
2018-12-18T12:55:01.823Z,9.0
2018-12-18T12:56:02.526Z,9.0
2018-12-18T12:57:03.189Z,9.0
2018-12-18T12:58:03.895Z,8.9
2018-12-18T12:59:04.555Z,8.9
2018-12-18T13:00:05.216Z,8.9
2018-12-18T13:01:05.924Z,8.9
2018-12-18T13:02:06.578Z,8.8
2018-12-18T13:03:07.237Z,8.9
2018-12-18T13:04:07.898Z,8.8
2018-12-18T13:05:08.559Z,8.8
2018-12-18T13:06:09.221Z,8.8
2018-12-18T13:07:09.882Z,8.8
2018-12-18T13:08:10.588Z,8.8
2018-12-18T13:09:11.250Z,8.8
2018-12-18T13:10:11.910Z,8.7
2018-12-18T13:11:12.572Z,8.7
2018-12-18T13:12:13.237Z,8.7
2018-12-18T13:13:13.942Z,8.7
2018-12-18T13:14:14.602Z,8.7
2018-12-18T13:15:15.265Z,8.8
2018-12-18T13:16:15.927Z,8.7
2018-12-18T13:17:16.587Z,8.6
2018-12-18T13:18:17.251Z,8.6
2018-12-18T13:19:17.912Z,8.6
2018-12-18T13:20:18.618Z,8.6
2018-12-18T13:21:19.279Z,8.5
2018-12-18T13:22:19.940Z,8.6
2018-12-18T13:23:20.604Z,8.6
2018-12-18T13:24:21.370Z,8.6
2018-12-18T13:25:21.978Z,8.7
2018-12-18T13:26:22.684Z,8.8
2018-12-18T13:27:23.344Z,8.7
2018-12-18T13:28:24.008Z,8.8
2018-12-18T13:29:24.665Z,8.8
2018-12-18T13:30:25.325Z,8.7
2018-12-18T13:31:25.985Z,8.8
2018-12-18T13:32:26.646Z,8.8
2018-12-18T13:33:27.307Z,8.7
2018-12-18T13:34:27.966Z,8.7
2018-12-18T13:35:28.626Z,8.7
2018-12-18T13:36:29.292Z,8.6
2018-12-18T13:37:29.949Z,8.7
2018-12-18T13:38:30.610Z,8.7
2018-12-18T13:39:31.366Z,8.7
2018-12-18T13:40:32.369Z,8.7
2018-12-18T13:41:33.007Z,8.7
2018-12-18T13:42:33.668Z,8.6
2018-12-18T13:43:34.329Z,8.7
2018-12-18T13:44:34.991Z,8.7
2018-12-18T13:45:35.651Z,8.6
2018-12-18T13:46:36.314Z,8.6
2018-12-18T13:47:36.974Z,8.5
2018-12-18T13:48:37.634Z,8.5
2018-12-18T13:49:38.297Z,8.4
2018-12-18T13:50:38.958Z,8.3
2018-12-18T13:51:39.620Z,8.3
2018-12-18T13:52:40.282Z,8.3
2018-12-18T13:53:40.943Z,8.3
2018-12-18T13:54:41.604Z,8.2
2018-12-18T13:55:42.265Z,8.2